Time;durP1;ratioP1;P1;durP2;ratioP2;P2;SDS_P1;SDS_P2;PMS_P1;PMS_P2;Temp;Humidity;BMP_temperature;BMP_pressure;BME280_temperature;BME280_humidity;BME280_pressure;Samples;Min_cycle;Max_cycle;Signal;HPM_P1;HPM_P2
2023/10/04 00:01:16;;;;;;;4.27;2.47;;;13.00;99.90;;;;;;5027188;28;20590;-67
2023/10/04 00:03:43;;;;;;;2.73;1.70;;;12.90;99.90;;;;;;5041013;28;20208;-68
2023/10/04 00:06:11;;;;;;;5.53;2.00;;;12.80;99.90;;;;;;5024481;28;20220;-71
2023/10/04 00:08:38;;;;;;;3.10;2.07;;;12.90;99.90;;;;;;5027870;28;20289;-69
2023/10/04 00:11:05;;;;;;;4.83;2.03;;;12.80;99.90;;;;;;5026876;28;20753;-68
2023/10/04 00:13:33;;;;;;;6.07;2.27;;;12.80;99.90;;;;;;5026222;28;20185;-67
2023/10/04 00:16:03;;;;;;;7.47;2.33;;;12.70;99.90;;;;;;5025170;28;20750;-71
2023/10/04 00:18:30;;;;;;;5.80;2.10;;;12.80;99.90;;;;;;5024428;28;20200;-67
2023/10/04 00:20:57;;;;;;;3.93;2.40;;;12.90;99.90;;;;;;5028370;28;20682;-69
2023/10/04 00:23:24;;;;;;;5.13;2.23;;;12.80;99.90;;;;;;5017978;28;20194;-69
2023/10/04 00:25:52;;;;;;;3.93;1.63;;;12.70;99.90;;;;;;5028118;28;20730;-68
2023/10/04 00:28:19;;;;;;;4.60;2.30;;;12.60;99.90;;;;;;5026078;28;20222;-67
2023/10/04 00:30:46;;;;;;;6.00;2.30;;;12.80;99.90;;;;;;5010864;28;20199;-67
2023/10/04 00:33:13;;;;;;;4.07;1.70;;;13.00;99.90;;;;;;5021651;28;20192;-69
2023/10/04 00:35:40;;;;;;;4.43;2.23;;;12.80;99.90;;;;;;5022005;28;20193;-68
2023/10/04 00:38:10;;;;;;;9.50;3.30;;;12.90;99.90;;;;;;5027706;28;20675;-68
2023/10/04 00:40:39;;;;;;;2.83;1.83;;;12.90;99.90;;;;;;5023867;28;20192;-69
2023/10/04 00:43:07;;;;;;;4.60;2.03;;;12.80;99.90;;;;;;5023015;28;20716;-72
2023/10/04 00:45:34;;;;;;;4.17;2.10;;;12.70;99.90;;;;;;5023860;28;20260;-76
2023/10/04 00:48:08;;;;;;;4.27;2.57;;;12.80;99.90;;;;;;5027062;28;20640;-72
2023/10/04 00:50:36;;;;;;;9.77;4.17;;;12.90;99.90;;;;;;5044339;28;20196;-68
2023/10/04 00:53:23;;;;;;;3.17;2.33;;;13.00;99.90;;;;;;5025619;28;20592;-68
2023/10/04 00:55:53;;;;;;;5.57;2.10;;;13.00;99.90;;;;;;5020872;28;20613;-65
2023/10/04 00:58:21;;;;;;;6.90;2.37;;;13.10;99.90;;;;;;5030470;28;20265;-64
2023/10/04 01:00:48;;;;;;;3.87;2.40;;;12.90;99.90;;;;;;5028888;28;20207;-64
2023/10/04 01:03:19;;;;;;;4.73;2.60;;;12.80;99.90;;;;;;5016234;28;20243;-63
2023/10/04 01:05:47;;;;;;;5.10;2.60;;;12.80;99.90;;;;;;5026774;28;20766;-64
2023/10/04 01:08:16;;;;;;;5.43;2.80;;;12.80;99.90;;;;;;5029292;28;20645;-62
2023/10/04 01:10:45;;;;;;;6.70;2.23;;;12.80;99.90;;;;;;5023917;28;20594;-66
2023/10/04 01:13:17;;;;;;;5.53;2.83;;;12.80;99.90;;;;;;5019568;28;20224;-62
2023/10/04 01:15:44;;;;;;;14.07;2.37;;;12.70;99.90;;;;;;5017307;28;20200;-70
2023/10/04 01:18:15;;;;;;;6.13;2.70;;;12.90;99.90;;;;;;5021373;28;20569;-65
2023/10/04 01:20:42;;;;;;;5.17;2.07;;;12.90;99.90;;;;;;5028742;28;20196;-69
2023/10/04 01:23:11;;;;;;;7.30;2.73;;;12.80;99.90;;;;;;5026750;28;20772;-63
2023/10/04 01:25:46;;;;;;;4.43;2.20;;;12.80;99.90;;;;;;5037660;28;20224;-64
2023/10/04 01:28:17;;;;;;;5.43;2.53;;;12.80;99.90;;;;;;5016944;28;20192;-64
2023/10/04 01:30:47;;;;;;;3.83;2.43;;;12.80;99.90;;;;;;5026370;28;20346;-65
2023/10/04 01:33:18;;;;;;;5.93;2.77;;;12.80;99.90;;;;;;5025269;28;20215;-65
2023/10/04 01:35:49;;;;;;;10.70;3.17;;;12.80;99.90;;;;;;5022218;28;20200;-65
2023/10/04 01:38:16;;;;;;;5.43;2.67;;;12.80;99.90;;;;;;5030315;28;20549;-65
2023/10/04 01:40:47;;;;;;;6.80;2.23;;;12.80;99.90;;;;;;5021642;28;20219;-65
2023/10/04 01:43:15;;;;;;;8.43;1.87;;;12.80;99.90;;;;;;5025013;28;20311;-65
2023/10/04 01:45:52;;;;;;;10.63;2.17;;;12.80;99.90;;;;;;5027721;28;20281;-70
2023/10/04 01:48:20;;;;;;;7.33;1.90;;;12.80;99.90;;;;;;5019740;28;20675;-65
2023/10/04 01:50:48;;;;;;;6.53;2.13;;;12.70;99.90;;;;;;5028254;28;20192;-65
2023/10/04 01:53:16;;;;;;;3.00;2.10;;;12.70;99.90;;;;;;5026009;28;20204;-63
2023/10/04 01:55:43;;;;;;;3.77;1.83;;;12.50;99.90;;;;;;5026000;28;20196;-63
2023/10/04 01:58:12;;;;;;;5.43;1.73;;;12.50;99.90;;;;;;5023282;28;20200;-65
2023/10/04 02:04:39;;;;;;;4.93;1.93;;;12.40;99.90;;;;;;5023140;28;20206;-66
2023/10/04 02:07:07;;;;;;;3.40;1.83;;;12.50;99.90;;;;;;5030732;28;20236;-67
2023/10/04 02:09:38;;;;;;;5.33;1.47;;;12.50;99.90;;;;;;5028982;28;20222;-68
2023/10/04 02:12:05;;;;;;;10.37;2.13;;;12.60;99.90;;;;;;5030425;28;20189;-67
2023/10/04 02:14:33;;;;;;;4.30;2.17;;;12.50;99.90;;;;;;5028690;28;20319;-63
2023/10/04 02:17:00;;;;;;;8.20;2.23;;;12.50;99.90;;;;;;5030563;28;20196;-64
2023/10/04 02:19:27;;;;;;;5.00;1.97;;;12.40;99.90;;;;;;5027227;28;20200;-64
2023/10/04 02:21:54;;;;;;;3.37;1.90;;;12.50;99.90;;;;;;5032493;28;20663;-65
2023/10/04 02:24:21;;;;;;;3.00;1.57;;;12.50;99.90;;;;;;5030955;28;20808;-72
2023/10/04 02:26:50;;;;;;;5.03;1.90;;;12.50;99.90;;;;;;5013600;28;20250;-65
2023/10/04 02:29:18;;;;;;;3.77;1.93;;;12.60;99.90;;;;;;5029245;28;20197;-64
2023/10/04 02:31:45;;;;;;;6.20;2.30;;;12.60;99.90;;;;;;5029873;28;20262;-64
2023/10/04 02:34:12;;;;;;;5.40;1.60;;;12.50;99.90;;;;;;5009026;28;20199;-65
2023/10/04 02:36:39;;;;;;;3.70;1.40;;;12.60;99.90;;;;;;5020319;28;20218;-71
2023/10/04 02:39:11;;;;;;;8.13;2.13;;;12.60;99.90;;;;;;5028886;28;20197;-63
2023/10/04 02:41:38;;;;;;;5.00;2.30;;;12.60;99.90;;;;;;5030118;28;20291;-65
2023/10/04 02:44:07;;;;;;;1.77;1.47;;;12.60;99.90;;;;;;5026915;28;20555;-63
2023/10/04 02:46:35;;;;;;;3.87;2.10;;;12.70;99.90;;;;;;5027193;28;20192;-63
2023/10/04 02:49:03;;;;;;;4.40;1.90;;;12.70;99.90;;;;;;5025036;28;20192;-63
2023/10/04 02:51:30;;;;;;;3.77;1.90;;;12.60;99.90;;;;;;5028105;28;20287;-63
2023/10/04 02:53:57;;;;;;;4.40;2.63;;;12.60;99.90;;;;;;5029915;28;20194;-75
2023/10/04 02:56:24;;;;;;;2.37;1.37;;;12.60;99.90;;;;;;5015457;28;20188;-65
2023/10/04 02:58:51;;;;;;;2.87;1.57;;;12.70;99.90;;;;;;5022619;28;20622;-63
2023/10/04 03:01:26;;;;;;;6.53;1.77;;;12.60;99.90;;;;;;5011913;28;20192;-74
2023/10/04 03:03:55;;;;;;;4.60;1.63;;;12.60;99.90;;;;;;5015819;28;20299;-69
2023/10/04 03:06:26;;;;;;;7.57;2.40;;;12.80;99.90;;;;;;5026763;28;20309;-65
2023/10/04 03:08:56;;;;;;;4.20;1.80;;;12.90;99.90;;;;;;5028921;28;20644;-64
2023/10/04 03:11:25;;;;;;;3.90;2.00;;;12.90;99.90;;;;;;5028368;28;20189;-65
2023/10/04 03:13:52;;;;;;;5.33;2.30;;;12.80;99.90;;;;;;5025485;28;20303;-67
2023/10/04 03:16:20;;;;;;;6.57;2.00;;;12.90;99.90;;;;;;5026977;28;20277;-68
2023/10/04 03:18:49;;;;;;;11.03;4.47;;;12.90;99.90;;;;;;5010527;28;20201;-67
2023/10/04 03:21:20;;;;;;;8.43;2.77;;;12.80;99.90;;;;;;5005920;28;20207;-72
2023/10/04 03:23:49;;;;;;;5.33;2.87;;;12.90;99.90;;;;;;5024684;28;20228;-64
2023/10/04 03:26:19;;;;;;;9.63;2.70;;;12.90;99.90;;;;;;5011562;28;20213;-64
2023/10/04 03:28:54;;;;;;;4.77;2.20;;;12.90;99.90;;;;;;5028422;28;20193;-63
2023/10/04 03:31:25;;;;;;;6.23;2.23;;;12.80;99.90;;;;;;5028814;28;20211;-63
2023/10/04 03:33:56;;;;;;;3.77;2.33;;;12.70;99.90;;;;;;5027548;28;20292;-65
2023/10/04 03:36:26;;;;;;;7.83;2.10;;;12.80;99.90;;;;;;5006101;28;20196;-64
2023/10/04 03:39:00;;;;;;;5.53;2.33;;;12.70;99.90;;;;;;5016318;28;20208;-62
2023/10/04 03:41:29;;;;;;;4.67;2.20;;;12.70;99.90;;;;;;5027613;28;20196;-62
2023/10/04 03:44:03;;;;;;;9.93;2.47;;;12.70;99.90;;;;;;5027957;28;20201;-63
2023/10/04 03:46:31;;;;;;;6.33;2.40;;;12.80;99.90;;;;;;5027416;28;20324;-63
2023/10/04 03:49:01;;;;;;;3.57;1.93;;;12.70;99.90;;;;;;5024075;28;20652;-63
2023/10/04 03:51:30;;;;;;;7.93;2.70;;;12.70;99.90;;;;;;5022057;28;20325;-64
2023/10/04 03:54:07;;;;;;;11.30;2.27;;;12.70;99.90;;;;;;5029343;28;20196;-64
2023/10/04 03:56:37;;;;;;;4.17;1.90;;;12.60;99.90;;;;;;5031417;28;20196;-64
2023/10/04 03:59:07;;;;;;;3.63;2.20;;;12.70;99.90;;;;;;5029977;28;20192;-64
2023/10/04 04:01:37;;;;;;;4.13;2.57;;;12.60;99.90;;;;;;5025952;28;20270;-64
2023/10/04 04:04:06;;;;;;;3.97;1.87;;;12.80;99.90;;;;;;5023907;28;20679;-63
2023/10/04 04:06:34;;;;;;;6.07;2.17;;;12.80;99.90;;;;;;5026985;28;20270;-66
2023/10/04 04:09:06;;;;;;;5.87;3.73;;;12.90;99.90;;;;;;5027352;28;20799;-64
2023/10/04 04:11:33;;;;;;;5.60;2.80;;;12.90;99.90;;;;;;5028999;28;20200;-64
2023/10/04 04:14:00;;;;;;;4.97;2.33;;;12.80;99.90;;;;;;5027407;28;20192;-63
2023/10/04 04:16:28;;;;;;;6.27;2.67;;;12.80;99.90;;;;;;5027908;28;20629;-67
2023/10/04 04:18:55;;;;;;;6.13;3.10;;;12.90;99.90;;;;;;5026417;28;20242;-63
2023/10/04 04:21:28;;;;;;;6.33;3.03;;;12.90;99.90;;;;;;5027981;28;20189;-63
2023/10/04 04:23:56;;;;;;;7.57;2.63;;;12.90;99.90;;;;;;5027162;28;20656;-63
2023/10/04 04:26:27;;;;;;;9.27;4.00;;;12.80;99.90;;;;;;5028885;28;20218;-70
2023/10/04 04:28:55;;;;;;;11.00;4.53;;;12.80;99.90;;;;;;5026182;28;20410;-65
2023/10/04 04:31:22;;;;;;;13.17;4.47;;;12.80;99.90;;;;;;5029019;28;20192;-68
2023/10/04 04:33:49;;;;;;;9.07;2.90;;;12.80;99.90;;;;;;5028022;28;20195;-68
2023/10/04 04:36:27;;;;;;;5.90;2.73;;;12.70;99.90;;;;;;5027774;28;20657;-68
2023/10/04 04:39:05;;;;;;;5.53;3.67;;;12.80;99.90;;;;;;5027179;28;20210;-63
2023/10/04 04:41:35;;;;;;;4.17;1.97;;;12.80;99.90;;;;;;5022417;28;20254;-63
2023/10/04 04:44:07;;;;;;;9.83;2.80;;;12.70;99.90;;;;;;5020094;28;20275;-64
2023/10/04 04:46:35;;;;;;;5.47;2.30;;;12.70;99.90;;;;;;5023879;28;20765;-64
2023/10/04 04:49:04;;;;;;;6.23;1.70;;;12.60;99.90;;;;;;5009001;28;20184;-64
2023/10/04 04:51:31;;;;;;;6.27;4.10;;;12.60;99.90;;;;;;5025010;28;20492;-66
2023/10/04 04:53:59;;;;;;;5.43;2.63;;;12.50;99.90;;;;;;5026811;28;20220;-70
2023/10/04 04:56:34;;;;;;;3.33;1.87;;;12.40;99.90;;;;;;5027724;28;20200;-65
2023/10/04 04:59:08;;;;;;;4.57;2.13;;;12.60;99.90;;;;;;5027700;28;20527;-64
2023/10/04 05:01:40;;;;;;;6.13;2.23;;;12.40;99.90;;;;;;5002721;28;20216;-65
2023/10/04 05:04:08;;;;;;;5.97;2.80;;;12.40;99.90;;;;;;5024955;28;20598;-63
2023/10/04 05:06:38;;;;;;;17.23;2.87;;;12.30;99.90;;;;;;5027990;28;20254;-64
2023/10/04 05:09:05;;;;;;;5.40;2.50;;;12.30;99.90;;;;;;5028379;28;20197;-64
2023/10/04 05:11:33;;;;;;;10.87;2.80;;;12.40;99.90;;;;;;5028806;28;20219;-72
2023/10/04 05:14:00;;;;;;;6.67;2.30;;;12.40;99.90;;;;;;5023789;28;20196;-64
2023/10/04 05:16:30;;;;;;;5.50;3.07;;;12.40;99.90;;;;;;5028428;28;20196;-62
2023/10/04 05:18:58;;;;;;;5.23;3.10;;;12.40;99.90;;;;;;5020950;28;20286;-62
2023/10/04 05:21:25;;;;;;;6.00;3.97;;;12.50;99.90;;;;;;5027553;28;20250;-63
2023/10/04 05:23:56;;;;;;;7.27;2.87;;;12.50;99.90;;;;;;5026747;28;20612;-63
2023/10/04 05:26:23;;;;;;;3.77;2.60;;;12.70;99.90;;;;;;5027535;28;20223;-63
2023/10/04 05:28:52;;;;;;;10.93;5.67;;;12.60;99.90;;;;;;5026964;28;20200;-65
2023/10/04 05:31:19;;;;;;;11.67;4.13;;;12.50;99.90;;;;;;5024153;28;20392;-67
2023/10/04 05:33:46;;;;;;;6.23;2.73;;;12.60;99.90;;;;;;5027046;28;20214;-63
2023/10/04 05:36:13;;;;;;;7.77;3.97;;;12.50;99.90;;;;;;5026304;28;20605;-63
2023/10/04 05:38:40;;;;;;;4.77;2.90;;;12.60;99.90;;;;;;5026251;28;20739;-66
2023/10/04 05:41:10;;;;;;;6.63;2.50;;;12.70;99.90;;;;;;5029734;28;20318;-63
2023/10/04 05:43:38;;;;;;;6.77;3.23;;;12.60;99.90;;;;;;5032278;28;20250;-63
2023/10/04 05:46:07;;;;;;;5.00;3.07;;;12.60;99.90;;;;;;5030242;28;20725;-63
2023/10/04 05:48:35;;;;;;;3.97;2.20;;;12.60;99.90;;;;;;5026879;28;20268;-62
2023/10/04 05:51:03;;;;;;;8.83;4.50;;;12.50;99.90;;;;;;5026825;28;20207;-66
2023/10/04 05:53:30;;;;;;;8.27;3.67;;;12.60;99.90;;;;;;5027209;28;20250;-64
2023/10/04 05:55:57;;;;;;;12.20;4.07;;;12.70;99.90;;;;;;5031863;28;20269;-67
2023/10/04 05:58:25;;;;;;;5.23;2.50;;;12.60;99.90;;;;;;5027217;28;20209;-65
2023/10/04 06:00:52;;;;;;;5.30;3.07;;;12.70;99.90;;;;;;5027418;28;20189;-67
2023/10/04 06:03:22;;;;;;;5.90;2.23;;;12.70;99.90;;;;;;5030582;28;20214;-67
2023/10/04 06:05:51;;;;;;;7.83;2.97;;;12.70;99.90;;;;;;5033442;28;20664;-66
2023/10/04 06:08:19;;;;;;;8.00;4.10;;;12.80;99.90;;;;;;5023595;28;20227;-67
2023/10/04 06:10:50;;;;;;;6.70;2.93;;;13.00;99.90;;;;;;5031683;28;20220;-67
2023/10/04 06:13:18;;;;;;;5.03;1.90;;;13.20;99.90;;;;;;5031371;28;20250;-67
2023/10/04 06:15:47;;;;;;;5.87;1.97;;;13.60;99.90;;;;;;5030449;28;20192;-66
2023/10/04 06:18:19;;;;;;;4.37;2.20;;;14.00;99.90;;;;;;5026627;28;20283;-64
2023/10/04 06:20:47;;;;;;;16.50;2.50;;;14.30;99.90;;;;;;5029921;28;20192;-63
2023/10/04 06:23:17;;;;;;;8.77;2.33;;;14.40;99.90;;;;;;5028651;28;20282;-63
2023/10/04 06:25:49;;;;;;;5.73;2.03;;;14.90;99.90;;;;;;5027852;28;20223;-63
2023/10/04 06:28:17;;;;;;;9.15;2.55;;;15.10;99.90;;;;;;5031625;28;20196;-62
2023/10/04 06:30:48;;;;;;;7.15;2.75;;;15.60;99.90;;;;;;5030966;28;20200;-63
2023/10/04 06:33:16;;;;;;;7.30;2.15;;;16.00;99.90;;;;;;5027840;28;20871;-64
2023/10/04 06:35:44;;;;;;;6.93;2.67;;;16.20;99.90;;;;;;5032052;28;20199;-68
2023/10/04 06:38:13;;;;;;;5.40;2.63;;;16.70;99.90;;;;;;5030632;28;20214;-68
2023/10/04 06:40:41;;;;;;;8.20;2.20;;;16.60;99.90;;;;;;5024113;28;20262;-64
2023/10/04 06:43:10;;;;;;;5.25;2.00;;;17.10;99.90;;;;;;5030030;28;20239;-67
2023/10/04 06:45:39;;;;;;;5.32;1.88;;;16.50;99.90;;;;;;5038755;28;20215;-64
2023/10/04 06:48:07;;;;;;;9.77;4.18;;;15.90;99.90;;;;;;5030968;28;20238;-66
2023/10/04 06:50:38;;;;;;;25.67;7.63;;;16.00;99.90;;;;;;5030239;28;20254;-66
2023/10/04 06:53:08;;;;;;;11.43;4.68;;;16.80;99.90;;;;;;5026989;28;20577;-67
2023/10/04 06:55:37;;;;;;;6.72;3.05;;;18.10;99.90;;;;;;5030090;28;20201;-64
2023/10/04 06:58:06;;;;;;;8.40;5.32;;;17.90;99.90;;;;;;5030633;28;20199;-63
2023/10/04 07:00:36;;;;;;;6.90;3.22;;;19.10;99.90;;;;;;5029145;28;20562;-64
2023/10/04 07:03:04;;;;;;;8.40;2.45;;;20.20;99.90;;;;;;5030799;28;20248;-64
2023/10/04 07:05:35;;;;;;;6.70;3.08;;;20.10;99.90;;;;;;5026571;28;22015;-66
2023/10/04 07:08:07;;;;;;;7.05;2.60;;;21.70;99.90;;;;;;5028439;28;20665;-65
2023/10/04 07:10:34;;;;;;;5.05;2.20;;;22.50;99.90;;;;;;5030630;28;20560;-64
2023/10/04 07:13:02;;;;;;;8.27;2.67;;;22.60;99.90;;;;;;5027150;28;20711;-66
2023/10/04 07:15:35;;;;;;;8.85;2.50;;;22.20;99.90;;;;;;5025683;28;20208;-65
2023/10/04 07:18:07;;;;;;;7.13;3.10;;;21.80;99.90;;;;;;5030583;28;20435;-66
2023/10/04 07:20:36;;;;;;;10.10;3.08;;;21.90;99.90;;;;;;5029277;28;20196;-66
2023/10/04 07:23:07;;;;;;;5.22;2.55;;;22.50;99.90;;;;;;5029094;28;20227;-63
2023/10/04 07:25:37;;;;;;;4.57;2.47;;;20.40;99.90;;;;;;5030309;28;20207;-67
2023/10/04 07:28:09;;;;;;;6.65;2.90;;;21.10;99.90;;;;;;5030940;28;20196;-72
2023/10/04 07:30:39;;;;;;;7.57;2.65;;;19.80;99.90;;;;;;5034918;28;20195;-64
2023/10/04 07:33:09;;;;;;;5.22;2.83;;;20.50;99.90;;;;;;5030803;28;20692;-67
2023/10/04 07:35:37;;;;;;;6.32;3.35;;;20.20;99.90;;;;;;5028482;28;20195;-63
2023/10/04 07:38:06;;;;;;;8.57;3.50;;;19.50;99.90;;;;;;5029226;28;20220;-63
2023/10/04 07:40:37;;;;;;;4.70;2.60;;;19.10;99.90;;;;;;5028897;28;20311;-66
2023/10/04 07:43:04;;;;;;;6.00;3.17;;;18.20;99.90;;;;;;5030621;28;20195;-63
2023/10/04 07:45:31;;;;;;;11.23;3.03;;;17.50;99.90;;;;;;5028854;28;20196;-63
2023/10/04 07:48:01;;;;;;;7.80;2.90;;;17.30;99.90;;;;;;5029990;28;20287;-63
2023/10/04 07:50:29;;;;;;;8.05;3.33;;;17.20;99.90;;;;;;5035578;28;20184;-64
2023/10/04 07:53:04;;;;;;;11.23;2.83;;;17.20;99.90;;;;;;5028953;28;20750;-64
2023/10/04 07:55:33;;;;;;;4.82;2.97;;;17.50;99.90;;;;;;5028137;28;20271;-64
2023/10/04 07:58:04;;;;;;;5.65;2.92;;;17.10;99.90;;;;;;5022483;28;20639;-65
2023/10/04 08:00:35;;;;;;;6.95;2.85;;;17.00;99.90;;;;;;5024858;28;20307;-67
2023/10/04 08:03:03;;;;;;;6.60;2.75;;;16.80;99.90;;;;;;5011721;28;20215;-66
2023/10/04 08:05:32;;;;;;;6.72;3.28;;;16.70;99.90;;;;;;5032586;28;20220;-68
2023/10/04 08:08:01;;;;;;;7.72;2.97;;;16.60;99.90;;;;;;5028370;28;20234;-67
2023/10/04 08:10:35;;;;;;;5.32;2.35;;;16.90;99.90;;;;;;5014480;28;20669;-67
2023/10/04 08:13:04;;;;;;;10.63;5.22;;;16.90;99.90;;;;;;5031530;28;20191;-67
2023/10/04 08:15:33;;;;;;;7.47;4.07;;;17.20;99.90;;;;;;5037791;28;20180;-66
2023/10/04 08:18:01;;;;;;;8.88;3.08;;;17.70;99.90;;;;;;5039152;28;20532;-64
2023/10/04 08:20:29;;;;;;;9.00;3.83;;;17.70;99.90;;;;;;5032768;28;20583;-63
2023/10/04 08:22:58;;;;;;;8.07;2.92;;;18.00;99.90;;;;;;5022310;28;20246;-63
2023/10/04 08:25:28;;;;;;;10.48;3.17;;;17.50;99.90;;;;;;5026023;28;20255;-68
2023/10/04 08:27:56;;;;;;;16.73;2.78;;;18.10;99.90;;;;;;5020264;28;20680;-70
2023/10/04 08:30:25;;;;;;;4.28;2.92;;;18.00;99.90;;;;;;5026881;28;20211;-68
2023/10/04 08:32:53;;;;;;;9.02;2.85;;;18.40;99.90;;;;;;5015636;28;20673;-68
2023/10/04 08:35:30;;;;;;;10.90;2.80;;;18.20;99.90;;;;;;5028469;28;20242;-67
2023/10/04 08:38:03;;;;;;;8.13;3.58;;;18.10;99.90;;;;;;5027291;28;20200;-71
2023/10/04 08:40:35;;;;;;;10.25;3.85;;;18.60;99.90;;;;;;5029358;28;21135;-68
2023/10/04 08:43:04;;;;;;;5.38;2.72;;;19.00;99.90;;;;;;5026124;28;20585;-71
2023/10/04 08:45:35;;;;;;;8.77;2.63;;;20.10;99.90;;;;;;5028604;28;20207;-67
2023/10/04 08:48:03;;;;;;;5.13;2.35;;;23.70;99.90;;;;;;5029459;28;20338;-67
2023/10/04 08:50:49;;;;;;;6.03;2.30;;;25.20;99.90;;;;;;5011870;28;20762;-69
2023/10/04 08:53:16;;;;;;;7.60;2.85;;;25.40;99.90;;;;;;5029112;28;20192;-69
2023/10/04 08:55:51;;;;;;;6.45;2.65;;;25.20;99.90;;;;;;5027104;28;20203;-70
2023/10/04 08:58:19;;;;;;;11.43;2.95;;;26.30;99.90;;;;;;5028828;28;20249;-68
2023/10/04 09:00:48;;;;;;;10.32;2.90;;;26.30;99.90;;;;;;5027660;28;20192;-69
2023/10/04 09:03:15;;;;;;;10.40;3.55;;;27.20;99.90;;;;;;5028681;28;20871;-68
2023/10/04 09:05:46;;;;;;;6.47;2.90;;;28.20;99.90;;;;;;5027328;28;20223;-66
2023/10/04 09:08:16;;;;;;;4.68;2.63;;;28.80;99.90;;;;;;5028698;28;20319;-64
2023/10/04 09:10:44;;;;;;;5.55;2.65;;;29.00;99.90;;;;;;5027350;28;20630;-69
2023/10/04 09:13:13;;;;;;;7.75;2.58;;;29.70;99.90;;;;;;5027892;28;20195;-67
2023/10/04 09:15:40;;;;;;;8.82;3.72;;;30.10;99.90;;;;;;5027625;28;20282;-70
2023/10/04 09:18:08;;;;;;;6.10;3.38;;;31.40;99.90;;;;;;5029447;28;20219;-70
2023/10/04 09:20:36;;;;;;;8.73;3.13;;;31.70;99.90;;;;;;5028919;28;20192;-76
2023/10/04 09:23:15;;;;;;;9.57;3.35;;;29.60;99.90;;;;;;5028464;28;20199;-69
2023/10/04 09:25:45;;;;;;;7.78;2.97;;;28.80;99.90;;;;;;4999713;28;20228;-68
2023/10/04 09:28:12;;;;;;;7.18;3.13;;;25.80;99.90;;;;;;5027169;28;20797;-68
2023/10/04 09:30:39;;;;;;;6.78;2.67;;;27.00;99.90;;;;;;5028865;28;20214;-68
2023/10/04 09:33:28;;;;;;;6.82;3.28;;;26.10;99.90;;;;;;5028958;28;20220;-69
2023/10/04 09:35:55;;;;;;;5.32;2.80;;;27.40;99.90;;;;;;5028884;28;20702;-68
2023/10/04 09:38:25;;;;;;;8.52;2.97;;;26.50;99.90;;;;;;5027866;28;20612;-70
2023/10/04 09:40:53;;;;;;;7.90;3.05;;;26.70;99.90;;;;;;5029494;28;20644;-69
2023/10/04 09:43:37;;;;;;;5.25;3.00;;;24.70;99.90;;;;;;5028652;28;20577;-69
2023/10/04 09:46:12;;;;;;;8.35;2.80;;;25.00;99.90;;;;;;5027438;28;20265;-69
2023/10/04 09:48:46;;;;;;;5.00;3.00;;;24.80;99.90;;;;;;5028898;28;20199;-69
2023/10/04 09:51:13;;;;;;;7.32;3.22;;;25.20;99.90;;;;;;5028453;28;20192;-68
2023/10/04 09:53:42;;;;;;;10.30;3.40;;;24.90;99.90;;;;;;5010588;28;20204;-69
2023/10/04 09:56:13;;;;;;;3.85;2.45;;;24.60;99.90;;;;;;5029161;28;20706;-69
2023/10/04 09:58:50;;;;;;;9.07;2.88;;;25.20;99.90;;;;;;5028058;28;20232;-68
2023/10/04 10:01:19;;;;;;;6.88;2.80;;;23.20;99.90;;;;;;5027104;28;20200;-69
2023/10/04 10:04:02;;;;;;;5.85;2.83;;;23.50;99.90;;;;;;5028946;28;20211;-68
2023/10/04 10:06:33;;;;;;;8.30;2.50;;;25.30;99.90;;;;;;5028613;28;20266;-68
2023/10/04 10:09:05;;;;;;;4.18;2.70;;;26.10;99.90;;;;;;5028213;28;20282;-68
2023/10/04 10:11:32;;;;;;;9.75;3.33;;;27.40;99.90;;;;;;5028331;28;20211;-69
2023/10/04 10:14:03;;;;;;;6.05;2.78;;;28.00;99.90;;;;;;5027276;28;20291;-68
2023/10/04 10:16:33;;;;;;;7.28;3.42;;;28.40;99.90;;;;;;5028180;28;20698;-68
2023/10/04 10:19:03;;;;;;;7.00;3.10;;;28.20;99.90;;;;;;5026864;28;20232;-68
2023/10/04 10:22:02;;;;;;;7.38;2.83;;;27.40;99.90;;;;;;5026052;28;20247;-68
2023/10/04 10:24:29;;;;;;;6.20;2.85;;;26.20;99.90;;;;;;5029652;28;20196;-64
2023/10/04 10:27:08;;;;;;;5.57;3.00;;;27.90;99.90;;;;;;5029837;28;20704;-66
2023/10/04 10:29:36;;;;;;;6.20;2.88;;;25.60;99.90;;;;;;5030752;28;20412;-63
2023/10/04 10:32:12;;;;;;;6.28;3.00;;;26.80;99.90;;;;;;5031815;28;20189;-64
2023/10/04 10:34:39;;;;;;;9.82;3.17;;;26.30;99.90;;;;;;5031936;28;20199;-64
2023/10/04 10:37:18;;;;;;;5.22;2.80;;;27.30;99.90;;;;;;5029872;28;20548;-65
2023/10/04 10:39:50;;;;;;;3.58;2.47;;;28.50;99.90;;;;;;5031231;28;20286;-64
2023/10/04 10:42:18;;;;;;;8.57;3.30;;;27.20;99.90;;;;;;5025953;28;20201;-64
2023/10/04 10:44:46;;;;;;;4.38;2.65;;;27.90;99.90;;;;;;5024665;28;20208;-64
2023/10/04 10:47:21;;;;;;;7.05;3.65;;;26.50;99.90;;;;;;5026509;28;20227;-64
2023/10/04 10:49:56;;;;;;;8.43;3.03;;;25.80;99.90;;;;;;5039190;28;20275;-63
2023/10/04 10:52:34;;;;;;;8.60;3.30;;;23.30;99.90;;;;;;5031501;28;20199;-63
2023/10/04 10:55:05;;;;;;;5.35;3.28;;;23.50;99.90;;;;;;5030784;28;20191;-65
2023/10/04 10:57:36;;;;;;;9.55;4.45;;;24.80;99.90;;;;;;5032774;28;20216;-68
2023/10/04 11:00:32;;;;;;;6.43;3.92;;;24.60;99.90;;;;;;5029375;28;20200;-70
2023/10/04 11:02:53;;;;;;;7.68;3.70;;;25.60;99.90;;;;;;5029928;28;20211;-69
2023/10/04 11:05:22;;;;;;;11.48;4.00;;;24.90;99.90;;;;;;5029764;28;20224;-69
2023/10/04 11:07:52;;;;;;;7.97;3.13;;;24.40;99.90;;;;;;5030477;28;20239;-70
2023/10/04 11:10:20;;;;;;;6.32;3.83;;;25.00;99.90;;;;;;5028685;28;20196;-71
2023/10/04 11:12:49;;;;;;;6.88;3.05;;;24.20;99.90;;;;;;5030417;28;20200;-68
2023/10/04 11:15:20;;;;;;;5.35;3.10;;;23.90;99.90;;;;;;5029071;28;20310;-68
2023/10/04 11:17:47;;;;;;;7.75;3.35;;;23.40;99.90;;;;;;5024595;28;20284;-69
2023/10/04 11:20:17;;;;;;;5.25;3.47;;;22.70;99.90;;;;;;5031051;28;20224;-68
2023/10/04 11:22:45;;;;;;;9.93;5.85;;;22.70;99.90;;;;;;5030881;28;20274;-70
2023/10/04 11:25:13;;;;;;;5.95;3.22;;;22.70;99.90;;;;;;5031125;28;20604;-64
2023/10/04 11:27:47;;;;;;;7.53;4.03;;;21.70;99.90;;;;;;5029861;28;20799;-69
2023/10/04 11:30:21;;;;;;;5.25;3.35;;;21.90;99.90;;;;;;5020482;28;20196;-67
2023/10/04 11:32:48;;;;;;;7.05;3.50;;;21.80;99.90;;;;;;5030324;28;20188;-67
2023/10/04 11:35:18;;;;;;;5.20;3.60;;;21.90;99.90;;;;;;5020218;28;20831;-70
2023/10/04 11:37:48;;;;;;;7.68;3.30;;;22.60;99.90;;;;;;5030560;28;20208;-76
2023/10/04 11:40:19;;;;;;;8.25;4.05;;;21.10;99.90;;;;;;5030537;28;20188;-72
2023/10/04 11:42:57;;;;;;;7.05;3.47;;;21.40;99.90;;;;;;5030325;28;20234;-73
2023/10/04 11:45:24;;;;;;;8.77;3.92;;;22.10;99.90;;;;;;5030208;28;20199;-68
2023/10/04 11:48:01;;;;;;;10.82;4.35;;;21.90;99.90;;;;;;5029702;28;20750;-71
2023/10/04 11:50:53;;;;;;;6.63;3.95;;;21.70;99.90;;;;;;5028630;28;20691;-71
2023/10/04 11:53:33;;;;;;;6.50;3.05;;;22.60;99.90;;;;;;5026636;28;20242;-69
2023/10/04 11:56:07;;;;;;;9.73;4.45;;;22.20;99.90;;;;;;5038530;28;20277;-69
2023/10/04 11:58:48;;;;;;;7.10;3.70;;;21.90;99.90;;;;;;5028936;28;20718;-70
2023/10/04 12:01:20;;;;;;;6.82;4.25;;;22.00;99.90;;;;;;5029470;28;20246;-68
2023/10/04 12:03:50;;;;;;;9.45;5.70;;;22.40;99.90;;;;;;5012349;28;20215;-69
2023/10/04 12:06:30;;;;;;;10.38;4.47;;;22.70;99.90;;;;;;5028859;28;20232;-68
2023/10/04 12:08:58;;;;;;;10.82;5.38;;;23.20;99.90;;;;;;5028889;28;20273;-73
2023/10/04 12:11:27;;;;;;;7.90;3.08;;;23.20;99.90;;;;;;5028866;28;20279;-69
2023/10/04 12:13:55;;;;;;;9.07;3.75;;;22.90;99.90;;;;;;5029136;28;20211;-68
2023/10/04 12:16:23;;;;;;;8.02;4.53;;;22.00;99.90;;;;;;5010908;28;20258;-68
2023/10/04 12:18:51;;;;;;;5.90;3.40;;;22.20;99.90;;;;;;5029419;28;20631;-68
2023/10/04 12:21:18;;;;;;;6.88;3.90;;;21.70;99.90;;;;;;5028219;28;20196;-67
2023/10/04 12:23:46;;;;;;;6.63;3.80;;;21.50;99.90;;;;;;5029854;28;20191;-72
2023/10/04 12:26:15;;;;;;;5.68;3.13;;;21.10;99.90;;;;;;5027811;28;20844;-68
2023/10/04 12:28:43;;;;;;;5.93;3.78;;;21.00;99.90;;;;;;5029406;28;20254;-67
2023/10/04 12:31:10;;;;;;;8.82;3.45;;;20.80;99.90;;;;;;5029783;28;20196;-68
2023/10/04 12:33:38;;;;;;;8.30;4.38;;;20.20;99.90;;;;;;5029687;28;20843;-64
2023/10/04 12:36:09;;;;;;;10.32;5.88;;;20.60;99.90;;;;;;5029216;28;20598;-64
2023/10/04 12:38:36;;;;;;;10.35;5.45;;;21.10;99.90;;;;;;5012271;28;20193;-64
2023/10/04 12:41:05;;;;;;;9.43;3.45;;;21.40;99.90;;;;;;5029629;28;20284;-64
2023/10/04 12:43:32;;;;;;;8.55;4.43;;;21.10;99.90;;;;;;5027519;28;20208;-66
2023/10/04 12:45:59;;;;;;;7.15;3.53;;;21.30;99.90;;;;;;5030106;28;20596;-67
2023/10/04 12:48:26;;;;;;;8.30;4.28;;;20.90;99.90;;;;;;5027468;28;20235;-69
2023/10/04 12:50:56;;;;;;;9.82;4.22;;;20.60;99.90;;;;;;5028798;28;20192;-68
2023/10/04 12:53:26;;;;;;;5.28;3.40;;;20.10;99.90;;;;;;5028425;28;20184;-68
2023/10/04 12:55:54;;;;;;;10.27;4.13;;;20.00;99.90;;;;;;5030231;28;20266;-68
2023/10/04 12:58:24;;;;;;;8.48;4.47;;;20.20;99.90;;;;;;5028318;28;20698;-69
2023/10/04 13:00:51;;;;;;;6.25;3.35;;;20.30;99.90;;;;;;5029610;28;20657;-68
2023/10/04 13:03:18;;;;;;;8.32;4.10;;;20.30;99.90;;;;;;5029070;28;20227;-69